Time;durP1;ratioP1;P1;durP2;ratioP2;P2;SDS_P1;SDS_P2;PMS_P1;PMS_P2;Temp;Humidity;BMP_temperature;BMP_pressure;BME280_temperature;BME280_humidity;BME280_pressure;Samples;Min_cycle;Max_cycle;Signal;HPM_P1;HPM_P2
2022/01/22 00:00:46;;;;;;;23.80;3.17;;;7.10;99.90;;;;;;6019345;23;20395;-75
2022/01/22 00:03:13;;;;;;;26.75;3.28;;;7.10;99.90;;;;;;6019669;23;20042;-75
2022/01/22 00:05:39;;;;;;;34.78;3.72;;;7.10;99.90;;;;;;6042301;23;20019;-75
2022/01/22 00:08:04;;;;;;;20.17;3.45;;;7.10;99.90;;;;;;6043034;23;20038;-75
2022/01/22 00:10:32;;;;;;;25.65;3.40;;;7.00;99.90;;;;;;6018947;23;20022;-75
2022/01/22 00:15:28;;;;;;;21.20;2.63;;;7.00;99.90;;;;;;6068186;23;20395;-74
2022/01/22 00:17:55;;;;;;;26.80;3.60;;;7.30;99.90;;;;;;6019880;23;20082;-74
2022/01/22 00:20:25;;;;;;;17.30;2.28;;;7.00;99.90;;;;;;6042641;23;20061;-76
2022/01/22 00:22:51;;;;;;;26.90;3.22;;;7.10;99.90;;;;;;6067424;23;20105;-76
2022/01/22 00:25:20;;;;;;;23.30;3.47;;;7.00;99.90;;;;;;6042218;23;20023;-76
2022/01/22 00:27:48;;;;;;;22.27;2.72;;;7.10;99.90;;;;;;6068098;23;20007;-76
2022/01/22 00:30:18;;;;;;;16.92;2.88;;;7.10;99.90;;;;;;6042326;23;20338;-76
2022/01/22 00:32:44;;;;;;;21.83;3.30;;;7.20;99.90;;;;;;6018634;23;20042;-76
2022/01/22 00:35:10;;;;;;;20.85;2.70;;;7.10;99.90;;;;;;6042248;23;20035;-76
2022/01/22 00:37:39;;;;;;;28.00;3.15;;;7.10;99.90;;;;;;6042860;23;20090;-76
2022/01/22 00:40:06;;;;;;;29.75;3.30;;;7.10;99.90;;;;;;6067557;23;20334;-76
2022/01/22 00:42:33;;;;;;;18.98;2.97;;;7.10;99.90;;;;;;6042174;23;20125;-76
2022/01/22 00:44:59;;;;;;;20.92;3.10;;;7.50;99.90;;;;;;6067812;23;20026;-76
2022/01/22 00:47:25;;;;;;;28.50;3.10;;;7.00;99.90;;;;;;6068823;23;20015;-76
2022/01/22 00:49:51;;;;;;;26.20;3.20;;;7.10;99.90;;;;;;6042560;23;20019;-76
2022/01/22 00:52:17;;;;;;;15.02;2.00;;;7.10;99.90;;;;;;6067930;23;20011;-76
2022/01/22 00:54:42;;;;;;;13.60;2.22;;;7.00;99.90;;;;;;6041984;23;20025;-76
2022/01/22 00:57:08;;;;;;;18.38;2.25;;;7.00;99.90;;;;;;6066987;23;20011;-76
2022/01/22 00:59:34;;;;;;;22.13;2.45;;;7.10;99.90;;;;;;6018281;23;20015;-75
2022/01/22 01:02:00;;;;;;;16.17;2.45;;;8.00;99.90;;;;;;6067617;23;20019;-75
2022/01/22 01:04:28;;;;;;;19.17;2.03;;;7.00;99.90;;;;;;6042271;23;20394;-75
2022/01/22 01:06:54;;;;;;;14.60;2.45;;;7.80;99.90;;;;;;6018162;23;20476;-75
2022/01/22 01:09:19;;;;;;;16.83;2.45;;;7.00;99.90;;;;;;6042560;23;20015;-75
2022/01/22 01:11:50;;;;;;;20.90;2.55;;;7.00;99.90;;;;;;6018656;23;20014;-74
2022/01/22 01:14:23;;;;;;;17.65;2.30;;;7.00;99.90;;;;;;6042837;23;20406;-74
2022/01/22 01:33:27;;;;;;;17.08;2.80;;;7.10;99.90;;;;;;5998244;23;20022;-74
2022/01/22 01:35:53;;;;;;;20.17;2.60;;;7.10;99.90;;;;;;6067298;23;20089;-75
2022/01/22 01:38:21;;;;;;;19.35;2.20;;;7.10;99.90;;;;;;6018582;23;20098;-74
2022/01/22 01:40:56;;;;;;;12.70;2.08;;;7.10;99.90;;;;;;6018356;23;20019;-74
2022/01/22 01:43:27;;;;;;;12.35;2.47;;;7.10;99.90;;;;;;6018124;23;20019;-75
2022/01/22 01:45:54;;;;;;;15.82;2.33;;;7.10;99.90;;;;;;6019398;23;20015;-75
2022/01/22 01:48:24;;;;;;;9.85;1.48;;;8.00;99.90;;;;;;6041150;23;20019;-75
2022/01/22 01:50:50;;;;;;;10.85;2.17;;;7.20;99.90;;;;;;6042325;23;20442;-75
2022/01/22 01:58:28;;;;;;;14.57;2.15;;;7.10;99.90;;;;;;6018131;23;20070;-76
2022/01/22 02:00:55;;;;;;;7.30;2.10;;;7.00;99.90;;;;;;6042167;23;20067;-77
2022/01/22 02:03:21;;;;;;;14.52;1.98;;;7.80;99.90;;;;;;6017616;23;20019;-76
2022/01/22 02:05:47;;;;;;;11.82;1.90;;;7.50;99.90;;;;;;6041330;23;20026;-76
2022/01/22 02:08:14;;;;;;;15.75;2.10;;;7.10;99.90;;;;;;6017817;23;20025;-76
2022/01/22 02:10:46;;;;;;;13.55;2.17;;;7.10;99.90;;;;;;6041792;23;20053;-76
2022/01/22 02:24:12;;;;;;;16.13;2.55;;;7.00;99.90;;;;;;6021521;23;20023;-76
2022/01/22 02:26:44;;;;;;;15.57;2.67;;;7.00;99.90;;;;;;6066858;23;20346;-76
2022/01/22 02:29:09;;;;;;;12.15;2.40;;;7.80;99.90;;;;;;6041655;23;20019;-76
2022/01/22 02:31:49;;;;;;;10.45;2.25;;;7.00;99.90;;;;;;6043939;23;20010;-76
2022/01/22 02:34:26;;;;;;;11.82;2.17;;;7.00;99.90;;;;;;6043187;23;20021;-76
2022/01/22 02:37:03;;;;;;;16.33;2.47;;;7.40;99.90;;;;;;6043161;23;20019;-76
2022/01/22 02:39:47;;;;;;;12.50;2.63;;;6.90;99.90;;;;;;6043651;23;20341;-76
2022/01/22 02:42:14;;;;;;;15.63;2.20;;;7.20;99.90;;;;;;6020124;23;20021;-75
2022/01/22 02:44:46;;;;;;;10.93;2.22;;;6.90;99.90;;;;;;6043305;23;20066;-75
2022/01/22 02:47:15;;;;;;;18.02;2.13;;;6.90;99.90;;;;;;6068998;23;20015;-75
2022/01/22 02:49:41;;;;;;;10.52;2.17;;;6.90;99.90;;;;;;6044400;23;20053;-75
2022/01/22 02:52:09;;;;;;;13.35;2.55;;;6.90;99.90;;;;;;6069228;23;20011;-75
2022/01/22 02:54:36;;;;;;;21.65;2.80;;;6.90;99.90;;;;;;6068600;23;20058;-75
2022/01/22 02:57:03;;;;;;;12.35;2.38;;;6.90;99.90;;;;;;6019858;23;20450;-75
2022/01/22 02:59:29;;;;;;;9.50;2.40;;;6.90;99.90;;;;;;6043261;23;20022;-75
2022/01/22 03:01:54;;;;;;;12.10;1.83;;;7.00;99.90;;;;;;5996090;23;20323;-75
2022/01/22 03:04:21;;;;;;;10.35;1.80;;;7.00;99.90;;;;;;6043301;23;20393;-75
2022/01/22 03:06:48;;;;;;;12.05;2.22;;;7.00;99.90;;;;;;6043044;23;20011;-75
2022/01/22 03:09:17;;;;;;;11.98;2.20;;;6.90;99.90;;;;;;6043003;23;20014;-75
2022/01/22 03:12:11;;;;;;;10.77;2.08;;;6.90;99.90;;;;;;6042756;23;20015;-75
2022/01/22 03:27:43;;;;;;;14.98;1.70;;;7.00;99.90;;;;;;6067921;23;20029;-75
2022/01/22 03:30:12;;;;;;;14.32;1.92;;;7.00;99.90;;;;;;5995598;23;20406;-74
2022/01/22 03:32:43;;;;;;;7.38;1.80;;;7.00;99.90;;;;;;6043047;23;20041;-75
2022/01/22 03:35:13;;;;;;;9.75;1.90;;;7.00;99.90;;;;;;5996169;23;20026;-75
2022/01/22 03:37:41;;;;;;;10.60;1.98;;;6.90;99.90;;;;;;6068514;23;20015;-75
2022/01/22 03:40:09;;;;;;;8.13;1.55;;;7.40;99.90;;;;;;6068587;23;20078;-75
2022/01/22 03:42:35;;;;;;;14.13;1.75;;;7.00;99.90;;;;;;6019208;23;20018;-75
2022/01/22 03:45:03;;;;;;;9.70;1.73;;;7.00;99.90;;;;;;6042060;23;20446;-75
2022/01/22 03:47:28;;;;;;;11.40;1.65;;;6.90;99.90;;;;;;6042594;23;20070;-75
2022/01/22 03:49:54;;;;;;;17.05;1.90;;;7.10;99.90;;;;;;6043024;23;20018;-76
2022/01/22 03:52:20;;;;;;;9.77;1.30;;;7.10;99.90;;;;;;6042601;23;20023;-76
2022/01/22 03:54:46;;;;;;;10.00;2.10;;;7.00;99.90;;;;;;6018953;23;20019;-76
2022/01/22 03:57:12;;;;;;;6.93;1.52;;;7.00;99.90;;;;;;6042869;23;20090;-76
2022/01/22 03:59:38;;;;;;;10.02;1.63;;;6.90;99.90;;;;;;6042997;23;20456;-74
2022/01/22 04:02:31;;;;;;;9.80;2.05;;;6.90;99.90;;;;;;6041950;23;20085;-74
2022/01/22 04:04:54;;;;;;;6.70;1.58;;;6.90;99.90;;;;;;6046846;23;20487;-74
2022/01/22 04:09:50;;;;;;;7.72;1.65;;;7.00;99.90;;;;;;6042244;23;20460;-74
2022/01/22 04:12:22;;;;;;;15.98;2.30;;;6.90;99.90;;;;;;6042531;23;20015;-74
2022/01/22 04:14:55;;;;;;;13.00;2.05;;;6.90;99.90;;;;;;6042614;23;20019;-75
2022/01/22 04:24:48;;;;;;;13.15;2.20;;;6.90;99.90;;;;;;6020667;23;20011;-75
2022/01/22 04:26:01;;;;;;;8.50;2.10;;;6.90;99.90;;;;;;6042502;23;20023;-74
2022/01/22 04:28:26;;;;;;;11.10;1.65;;;7.00;99.90;;;;;;6018947;23;20018;-74
2022/01/22 04:30:52;;;;;;;14.40;2.15;;;6.90;99.90;;;;;;6042327;23;20358;-74
2022/01/22 04:33:18;;;;;;;6.13;1.52;;;6.90;99.90;;;;;;6042996;23;20350;-76
2022/01/22 04:35:44;;;;;;;11.90;2.30;;;7.10;99.90;;;;;;6067393;23;20446;-76
2022/01/22 04:38:10;;;;;;;15.20;2.13;;;6.90;99.90;;;;;;6042632;23;20065;-76
2022/01/22 04:40:36;;;;;;;7.00;1.30;;;6.90;99.90;;;;;;6042534;23;20439;-76
2022/01/22 04:43:04;;;;;;;9.43;1.45;;;6.80;99.90;;;;;;6042588;23;20338;-76
2022/01/22 04:45:47;;;;;;;4.50;1.35;;;7.30;99.90;;;;;;6018856;23;20023;-76
2022/01/22 04:56:46;;;;;;;14.07;1.88;;;6.90;99.90;;;;;;5928765;24;20441;-75
2022/01/22 04:59:12;;;;;;;7.53;1.20;;;6.80;99.90;;;;;;5928757;24;20556;-75
2022/01/22 05:01:38;;;;;;;6.85;1.20;;;6.80;99.90;;;;;;5982975;23;20094;-75
2022/01/22 05:04:04;;;;;;;10.27;1.58;;;6.80;99.90;;;;;;6018509;23;20065;-75
2022/01/22 05:06:30;;;;;;;9.52;1.48;;;6.80;99.90;;;;;;6017901;23;20429;-75
2022/01/22 05:08:57;;;;;;;10.10;1.40;;;6.90;99.90;;;;;;6042714;23;20337;-75
2022/01/22 05:11:24;;;;;;;8.60;1.50;;;6.90;99.90;;;;;;6019306;23;20094;-74
2022/01/22 05:13:52;;;;;;;15.00;1.98;;;7.00;99.90;;;;;;6067474;23;20019;-75
2022/01/22 05:16:18;;;;;;;16.20;1.55;;;7.60;99.90;;;;;;6067497;23;20450;-75
2022/01/22 05:19:32;;;;;;;12.63;2.10;;;6.90;99.90;;;;;;6042171;23;20393;-75
2022/01/22 05:21:35;;;;;;;12.95;2.20;;;6.90;99.90;;;;;;6059374;23;20023;-75
2022/01/22 05:24:05;;;;;;;11.45;2.22;;;6.90;99.90;;;;;;6041623;23;20350;-75
2022/01/22 05:32:15;;;;;;;17.08;1.83;;;6.80;99.90;;;;;;6019230;23;20022;-75
2022/01/22 05:37:13;;;;;;;15.23;2.35;;;6.80;99.90;;;;;;6042070;23;20019;-74
2022/01/22 05:39:39;;;;;;;14.63;2.20;;;6.80;99.90;;;;;;6067178;23;20086;-75
2022/01/22 05:42:09;;;;;;;16.77;2.20;;;6.80;99.90;;;;;;6067194;23;20058;-75
2022/01/22 05:44:35;;;;;;;16.20;2.13;;;6.90;99.90;;;;;;6018310;23;20090;-75
2022/01/22 05:47:05;;;;;;;15.10;2.17;;;6.90;99.90;;;;;;6041762;23;20026;-75
2022/01/22 05:49:35;;;;;;;15.82;1.85;;;6.90;99.90;;;;;;6067619;23;20330;-75
2022/01/22 05:52:03;;;;;;;12.63;1.63;;;6.90;99.90;;;;;;6018799;23;20023;-75
2022/01/22 05:59:41;;;;;;;14.70;1.95;;;6.90;99.90;;;;;;6021708;23;20022;-75
2022/01/22 06:02:09;;;;;;;11.75;1.90;;;6.90;99.90;;;;;;6067657;23;20015;-75
2022/01/22 06:04:35;;;;;;;12.00;1.73;;;6.90;99.90;;;;;;6041282;23;20018;-75
2022/01/22 06:07:03;;;;;;;11.35;1.80;;;6.80;99.90;;;;;;6042157;23;20023;-75
2022/01/22 06:09:31;;;;;;;16.60;2.00;;;6.80;99.90;;;;;;6041659;23;20078;-75
2022/01/22 06:12:03;;;;;;;14.55;2.25;;;6.80;99.90;;;;;;6066875;23;20019;-75
2022/01/22 06:14:30;;;;;;;15.52;2.40;;;6.80;99.90;;;;;;6041538;23;20070;-75
2022/01/22 06:16:55;;;;;;;21.77;2.72;;;6.90;99.90;;;;;;6018075;23;20073;-75
2022/01/22 06:19:21;;;;;;;12.48;2.45;;;6.90;99.90;;;;;;6017908;23;20023;-75
2022/01/22 06:21:50;;;;;;;16.92;2.53;;;7.00;99.90;;;;;;6017847;23;20014;-75
2022/01/22 06:24:16;;;;;;;17.00;3.22;;;6.80;99.90;;;;;;6067192;23;20007;-75
2022/01/22 06:26:41;;;;;;;12.95;2.40;;;6.80;99.90;;;;;;6018126;23;20323;-74
2022/01/22 06:29:07;;;;;;;12.15;2.58;;;6.80;99.90;;;;;;6041207;23;20430;-75
2022/01/22 06:31:33;;;;;;;17.40;2.35;;;6.80;99.90;;;;;;6067118;23;20031;-75
2022/01/22 06:33:59;;;;;;;8.68;1.80;;;6.80;99.90;;;;;;6067201;23;20019;-75
2022/01/22 06:36:26;;;;;;;6.50;1.80;;;6.80;99.90;;;;;;6018181;23;20031;-74
2022/01/22 06:38:57;;;;;;;8.23;1.60;;;6.80;99.90;;;;;;6018676;23;20015;-73
2022/01/22 06:44:07;;;;;;;9.95;2.10;;;6.80;99.90;;;;;;6041553;23;20458;-73
2022/01/22 06:46:33;;;;;;;7.72;1.80;;;6.80;99.90;;;;;;6041469;23;20453;-73
2022/01/22 06:48:58;;;;;;;9.73;1.98;;;6.70;99.90;;;;;;6017990;23;20023;-74
2022/01/22 06:51:26;;;;;;;11.73;2.13;;;6.70;99.90;;;;;;6067107;23;20015;-73
2022/01/22 06:53:53;;;;;;;11.50;2.20;;;6.70;99.90;;;;;;6067383;23;20078;-74
2022/01/22 06:56:21;;;;;;;14.95;2.60;;;6.70;99.90;;;;;;6041048;23;20090;-73
2022/01/22 06:58:47;;;;;;;13.60;2.33;;;6.70;99.90;;;;;;6041732;23;20021;-73
2022/01/22 07:01:14;;;;;;;10.43;2.10;;;6.70;99.90;;;;;;5994556;23;20094;-73
2022/01/22 07:03:40;;;;;;;9.48;2.50;;;7.00;99.90;;;;;;6066332;23;20011;-73
2022/01/22 07:06:05;;;;;;;14.85;1.80;;;6.70;99.90;;;;;;6041846;23;20093;-73
2022/01/22 07:08:31;;;;;;;13.50;1.88;;;6.70;99.90;;;;;;6067111;23;20018;-74
2022/01/22 07:10:57;;;;;;;9.70;2.00;;;6.70;99.90;;;;;;6067328;23;20011;-74
2022/01/22 07:13:23;;;;;;;7.22;1.80;;;6.70;99.90;;;;;;6017493;23;20022;-73
2022/01/22 07:15:48;;;;;;;9.40;1.90;;;6.70;99.90;;;;;;5994612;23;20022;-74
2022/01/22 07:18:14;;;;;;;5.60;2.05;;;6.70;99.90;;;;;;6043492;23;20045;-74
2022/01/22 07:20:41;;;;;;;6.28;1.90;;;7.00;99.90;;;;;;6042576;23;20023;-74
2022/01/22 07:25:40;;;;;;;7.85;2.03;;;6.60;99.90;;;;;;6044478;23;20078;-74
2022/01/22 07:28:06;;;;;;;5.57;2.10;;;7.00;99.90;;;;;;6068978;23;20330;-74
2022/01/22 07:30:32;;;;;;;9.48;2.05;;;6.70;99.90;;;;;;6043002;23;20019;-73
2022/01/22 07:32:58;;;;;;;12.57;2.60;;;6.60;99.90;;;;;;6042987;23;20015;-74
2022/01/22 07:35:24;;;;;;;12.18;2.85;;;7.00;99.90;;;;;;6042218;23;20347;-74
2022/01/22 07:37:50;;;;;;;11.50;2.38;;;6.60;99.90;;;;;;6068705;23;20022;-74
2022/01/22 07:40:16;;;;;;;12.63;2.35;;;6.90;99.90;;;;;;6068639;23;20015;-74
2022/01/22 07:42:42;;;;;;;8.80;2.13;;;6.80;99.90;;;;;;6043296;23;20011;-74
2022/01/22 07:45:09;;;;;;;10.52;2.25;;;6.50;99.90;;;;;;6019413;23;20019;-74
2022/01/22 07:47:35;;;;;;;10.65;2.30;;;6.50;99.90;;;;;;6042893;23;20019;-74
2022/01/22 07:50:02;;;;;;;13.57;1.98;;;6.50;99.90;;;;;;6068371;23;20026;-74
2022/01/22 07:52:28;;;;;;;8.18;2.17;;;6.50;99.90;;;;;;6019370;23;20019;-74
2022/01/22 07:54:53;;;;;;;12.43;2.08;;;6.50;99.90;;;;;;6018497;23;20074;-71
2022/01/22 07:57:19;;;;;;;7.38;1.90;;;6.50;99.90;;;;;;6068157;23;20022;-70
2022/01/22 07:59:45;;;;;;;7.88;1.80;;;6.50;99.90;;;;;;6067578;23;20346;-70
2022/01/22 08:02:13;;;;;;;4.25;1.40;;;6.50;99.90;;;;;;6042526;23;20019;-68
2022/01/22 08:04:39;;;;;;;9.82;2.00;;;6.50;99.90;;;;;;6067638;23;20015;-68
2022/01/22 08:07:05;;;;;;;6.80;1.45;;;6.90;99.90;;;;;;6068616;23;20022;-67
2022/01/22 08:09:32;;;;;;;8.90;1.80;;;6.50;99.90;;;;;;6068059;23;20120;-68
2022/01/22 08:11:59;;;;;;;8.13;1.90;;;6.50;99.90;;;;;;6070419;23;20014;-68
2022/01/22 08:14:24;;;;;;;6.38;2.20;;;6.50;99.90;;;;;;6042080;23;20082;-72
2022/01/22 08:16:50;;;;;;;9.90;1.85;;;6.90;99.90;;;;;;6018632;23;20014;-75
2022/01/22 08:19:17;;;;;;;3.78;1.23;;;6.60;99.90;;;;;;6018391;23;20050;-73
2022/01/22 08:21:45;;;;;;;10.93;2.13;;;6.50;99.90;;;;;;6042415;23;20030;-74
2022/01/22 08:24:12;;;;;;;9.40;2.00;;;6.60;99.90;;;;;;6042976;23;20033;-74
2022/01/22 08:26:44;;;;;;;13.13;1.67;;;6.60;99.90;;;;;;6018742;23;20371;-74
2022/01/22 08:29:11;;;;;;;9.68;1.40;;;6.60;99.90;;;;;;6042178;23;20567;-73
2022/01/22 08:31:46;;;;;;;12.30;1.95;;;6.80;99.90;;;;;;6042558;23;20015;-70
2022/01/22 08:36:57;;;;;;;10.30;1.70;;;6.60;99.90;;;;;;6068007;23;20034;-75
2022/01/22 08:39:23;;;;;;;10.70;1.58;;;6.60;99.90;;;;;;6067693;23;20358;-74
2022/01/22 08:41:49;;;;;;;10.02;1.80;;;6.60;99.90;;;;;;6069175;23;20014;-74
2022/01/22 08:44:15;;;;;;;16.80;1.80;;;6.60;99.90;;;;;;6069005;23;20018;-74
2022/01/22 08:46:41;;;;;;;8.85;1.67;;;6.70;99.90;;;;;;6043125;23;20023;-73
2022/01/22 08:49:08;;;;;;;10.02;1.65;;;6.70;99.90;;;;;;6067882;23;20063;-75
2022/01/22 08:51:35;;;;;;;8.98;1.63;;;6.70;99.90;;;;;;6069001;23;20023;-75
2022/01/22 08:54:01;;;;;;;8.90;1.30;;;6.70;99.90;;;;;;6068142;23;20026;-74
2022/01/22 08:56:28;;;;;;;7.20;1.65;;;6.70;99.90;;;;;;6041964;23;20015;-75
2022/01/22 08:58:55;;;;;;;8.90;2.25;;;6.70;99.90;;;;;;6042582;23;20018;-74
2022/01/22 09:01:20;;;;;;;6.85;1.50;;;6.70;99.90;;;;;;6067536;23;20523;-74
2022/01/22 09:03:48;;;;;;;8.23;1.33;;;6.70;99.90;;;;;;6041529;23;20085;-77
2022/01/22 09:06:14;;;;;;;8.95;1.40;;;7.20;99.90;;;;;;6041590;23;20022;-79
2022/01/22 09:08:41;;;;;;;7.07;1.20;;;6.70;99.90;;;;;;6018128;23;20454;-80
2022/01/22 09:11:06;;;;;;;6.13;1.45;;;6.70;99.90;;;;;;6018907;23;20390;-80
2022/01/22 09:13:33;;;;;;;9.20;1.20;;;6.70;99.90;;;;;;6067779;23;20053;-79
2022/01/22 09:15:59;;;;;;;8.38;1.40;;;6.70;99.90;;;;;;5994746;23;20102;-80
2022/01/22 09:18:25;;;;;;;10.57;1.90;;;6.80;99.90;;;;;;6042553;23;20138;-79
2022/01/22 09:23:17;;;;;;;6.78;1.52;;;6.80;99.90;;;;;;6042364;23;20054;-79
2022/01/22 09:25:45;;;;;;;8.20;1.38;;;6.80;99.90;;;;;;6042283;23;20023;-78
2022/01/22 09:28:12;;;;;;;9.57;1.40;;;6.80;99.90;;;;;;6042142;23;20102;-80
2022/01/22 09:30:39;;;;;;;7.55;1.48;;;6.80;99.90;;;;;;6018446;23;20014;-79
2022/01/22 09:33:06;;;;;;;9.55;1.40;;;6.80;99.90;;;;;;6042366;23;20019;-75
2022/01/22 09:35:31;;;;;;;8.35;1.48;;;6.90;99.90;;;;;;6041860;23;20021;-75
2022/01/22 09:37:57;;;;;;;10.48;1.50;;;7.00;99.90;;;;;;6017739;23;20015;-75
2022/01/22 09:40:28;;;;;;;9.90;1.42;;;7.00;99.90;;;;;;6041697;23;20093;-75
2022/01/22 09:42:55;;;;;;;9.50;1.92;;;6.90;99.90;;;;;;6018486;23;20472;-79
2022/01/22 09:45:22;;;;;;;5.88;1.80;;;7.10;99.90;;;;;;6018168;23;20025;-75
2022/01/22 09:47:49;;;;;;;10.90;2.47;;;6.90;99.90;;;;;;6042416;23;20021;-75
2022/01/22 09:50:20;;;;;;;14.35;1.98;;;7.30;99.90;;;;;;6018717;23;20059;-75
2022/01/22 09:52:47;;;;;;;7.07;2.17;;;7.00;99.90;;;;;;6067789;23;20315;-75
2022/01/22 09:55:13;;;;;;;11.45;1.90;;;7.00;99.90;;;;;;6017837;23;20023;-75
2022/01/22 09:57:40;;;;;;;12.77;2.00;;;7.40;99.90;;;;;;6067329;23;20019;-75
2022/01/22 10:00:10;;;;;;;14.80;2.20;;;7.10;99.90;;;;;;6067699;23;20082;-74
2022/01/22 10:02:47;;;;;;;12.65;2.50;;;6.90;99.90;;;;;;6042437;23;20021;-75
2022/01/22 10:05:32;;;;;;;6.95;2.13;;;7.00;99.90;;;;;;6041805;23;20342;-79
2022/01/22 10:08:17;;;;;;;10.73;1.90;;;7.00;99.90;;;;;;6067271;23;20151;-78
2022/01/22 10:10:43;;;;;;;11.63;1.50;;;7.00;99.90;;;;;;6041779;23;20055;-79
2022/01/22 10:13:09;;;;;;;8.90;2.17;;;7.20;99.90;;;;;;6042312;23;20019;-79
2022/01/22 10:15:35;;;;;;;9.05;1.80;;;7.10;99.90;;;;;;6042107;23;20022;-79
2022/01/22 10:18:02;;;;;;;6.00;1.80;;;7.00;99.90;;;;;;6018166;23;20014;-79
2022/01/22 10:20:37;;;;;;;10.82;2.00;;;7.10;99.90;;;;;;6017935;23;20018;-79
2022/01/22 10:23:08;;;;;;;9.02;2.10;;;7.00;99.90;;;;;;6041807;23;20085;-79
2022/01/22 10:25:43;;;;;;;8.20;1.95;;;7.00;99.90;;;;;;6018031;23;20054;-79
2022/01/22 10:28:19;;;;;;;7.38;1.80;;;7.00;99.90;;;;;;6041966;23;20358;-79
2022/01/22 10:30:46;;;;;;;10.32;1.90;;;7.10;99.90;;;;;;6041876;23;20019;-79
2022/01/22 10:33:28;;;;;;;9.75;1.90;;;7.10;99.90;;;;;;6018196;23;20473;-79
2022/01/22 10:36:10;;;;;;;14.82;2.10;;;7.20;99.90;;;;;;6067315;23;20158;-74
2022/01/22 10:38:52;;;;;;;7.10;1.90;;;7.10;99.90;;;;;;6043018;23;20014;-75
2022/01/22 10:41:33;;;;;;;10.80;2.13;;;7.20;99.90;;;;;;6017671;23;20026;-74
2022/01/22 10:44:00;;;;;;;9.60;2.13;;;7.20;99.90;;;;;;6071234;23;20022;-79
2022/01/22 10:48:55;;;;;;;6.32;2.10;;;7.20;99.90;;;;;;6020103;23;20022;-75
2022/01/22 10:51:22;;;;;;;10.98;2.38;;;7.30;99.90;;;;;;6018971;23;20045;-75
2022/01/22 10:53:59;;;;;;;9.75;2.42;;;7.20;99.90;;;;;;6043895;23;20019;-75
2022/01/22 10:56:29;;;;;;;13.15;2.58;;;7.20;99.90;;;;;;6019475;23;20146;-74
2022/01/22 10:58:56;;;;;;;10.57;2.53;;;7.20;99.90;;;;;;6019552;23;20011;-75
2022/01/22 11:01:25;;;;;;;10.82;2.58;;;7.20;99.90;;;;;;6042976;23;20034;-75
2022/01/22 11:04:15;;;;;;;14.25;2.78;;;7.20;99.90;;;;;;6043627;23;20014;-74
2022/01/22 11:06:54;;;;;;;13.15;2.28;;;7.30;99.90;;;;;;6068957;23;20021;-75
2022/01/22 11:12:09;;;;;;;13.32;2.53;;;7.30;99.90;;;;;;6042964;23;20055;-75
2022/01/22 11:14:37;;;;;;;12.65;2.80;;;7.30;99.90;;;;;;6043310;23;20349;-75
2022/01/22 11:17:08;;;;;;;11.98;2.92;;;7.60;99.90;;;;;;6019592;23;20017;-75
2022/01/22 11:19:36;;;;;;;17.00;3.00;;;7.90;99.90;;;;;;6043080;23;20029;-75
2022/01/22 11:22:11;;;;;;;14.38;3.65;;;7.40;99.90;;;;;;6042983;23;20090;-75
2022/01/22 11:24:44;;;;;;;16.90;3.80;;;7.40;99.90;;;;;;6019511;23;20011;-75
2022/01/22 11:27:12;;;;;;;14.13;3.20;;;7.50;99.90;;;;;;6042952;23;20011;-79
2022/01/22 11:29:46;;;;;;;12.25;2.63;;;7.40;99.90;;;;;;6068662;23;20015;-79
2022/01/22 11:32:14;;;;;;;16.00;3.28;;;7.40;99.90;;;;;;6067999;23;20011;-79
2022/01/22 11:34:43;;;;;;;13.50;3.40;;;7.50;99.90;;;;;;6068400;23;20044;-79
2022/01/22 11:37:33;;;;;;;20.05;3.55;;;7.40;99.90;;;;;;6019111;23;20015;-79
2022/01/22 11:40:32;;;;;;;15.27;3.20;;;7.40;99.90;;;;;;6043425;23;20022;-79
2022/01/22 11:43:08;;;;;;;10.88;3.40;;;7.40;99.90;;;;;;6021504;23;20023;-79
2022/01/22 11:45:50;;;;;;;18.95;3.65;;;7.40;99.90;;;;;;6021107;23;20014;-79
2022/01/22 11:48:23;;;;;;;16.67;4.00;;;7.40;99.90;;;;;;6042175;23;20345;-79
2022/01/22 11:50:52;;;;;;;13.57;3.42;;;7.40;99.90;;;;;;6068401;23;20050;-79
2022/01/22 11:53:33;;;;;;;14.05;3.75;;;7.40;99.90;;;;;;6019303;23;20341;-79
2022/01/22 11:56:07;;;;;;;15.82;3.05;;;7.60;99.90;;;;;;6018958;23;20119;-79
2022/01/22 11:58:54;;;;;;;14.13;2.97;;;7.60;99.90;;;;;;6068052;23;20018;-79
2022/01/22 12:01:52;;;;;;;17.83;2.78;;;7.60;99.90;;;;;;6018496;23;20365;-79
2022/01/22 12:04:39;;;;;;;12.43;2.95;;;7.50;99.90;;;;;;6042278;23;20395;-79
2022/01/22 12:07:06;;;;;;;17.98;3.45;;;7.50;99.90;;;;;;6047847;23;20054;-80
2022/01/22 12:10:15;;;;;;;14.50;3.47;;;7.80;99.90;;;;;;6042547;23;20024;-79
2022/01/22 12:15:35;;;;;;;18.00;4.10;;;7.50;99.90;;;;;;6042522;23;20018;-79
2022/01/22 12:18:02;;;;;;;22.30;4.05;;;7.50;99.90;;;;;;6042646;23;20093;-79
2022/01/22 12:23:05;;;;;;;21.95;4.18;;;7.50;99.90;;;;;;6042324;23;20015;-79
2022/01/22 12:25:31;;;;;;;24.30;5.00;;;7.40;99.90;;;;;;6042251;23;20026;-79
2022/01/22 12:27:58;;;;;;;18.05;4.50;;;7.40;99.90;;;;;;6018783;23;20472;-79
2022/01/22 12:30:38;;;;;;;14.38;3.92;;;7.40;99.90;;;;;;6042318;23;20015;-79
2022/01/22 12:33:07;;;;;;;22.13;4.88;;;7.40;99.90;;;;;;6018712;23;20082;-79
2022/01/22 12:35:36;;;;;;;20.40;4.55;;;7.30;99.90;;;;;;6017882;23;20023;-79
2022/01/22 12:38:29;;;;;;;21.02;4.70;;;7.30;99.90;;;;;;6042069;23;20036;-79
2022/01/22 12:41:27;;;;;;;22.65;4.40;;;7.30;99.90;;;;;;6067828;23;20023;-79
2022/01/22 12:44:29;;;;;;;23.45;4.95;;;7.30;99.90;;;;;;6042225;23;20011;-78
2022/01/22 12:46:59;;;;;;;22.85;4.78;;;7.30;99.90;;;;;;6042377;23;20047;-78
2022/01/22 12:49:28;;;;;;;23.73;5.25;;;7.30;99.90;;;;;;6042199;23;20086;-78
2022/01/22 12:52:06;;;;;;;22.63;5.20;;;7.30;99.90;;;;;;6067276;23;20058;-79
2022/01/22 12:54:36;;;;;;;18.45;4.80;;;7.30;99.90;;;;;;6041880;23;20017;-80
2022/01/22 12:57:07;;;;;;;20.73;5.18;;;7.30;99.90;;;;;;6068377;23;20022;-78
2022/01/22 13:00:12;;;;;;;20.25;5.38;;;7.80;99.90;;;;;;6068123;23;20054;-79
2022/01/22 13:02:42;;;;;;;17.80;5.50;;;7.40;99.90;;;;;;6041923;23;20390;-79
2022/01/22 13:05:10;;;;;;;21.17;5.45;;;7.40;99.90;;;;;;6067668;23;20019;-78
2022/01/22 13:08:07;;;;;;;21.40;4.72;;;7.70;99.90;;;;;;6042246;23;20038;-79
2022/01/22 13:10:43;;;;;;;;;;;7.40;99.90;;;;;;6038418;23;20150;-78
2022/01/22 13:13:10;;;;;;;17.95;3.58;;;7.40;99.90;;;;;;6018205;23;19921;-78
2022/01/22 13:15:37;;;;;;;12.13;2.90;;;7.40;99.90;;;;;;6041845;23;20114;-78
2022/01/22 13:18:04;;;;;;;18.38;3.33;;;7.40;99.90;;;;;;6067657;23;20007;-79
2022/01/22 13:20:34;;;;;;;12.98;3.40;;;7.40;99.90;;;;;;6017732;23;20019;-79
2022/01/22 13:23:14;;;;;;;17.23;4.18;;;7.40;99.90;;;;;;6041578;23;20023;-78
2022/01/22 13:25:40;;;;;;;12.15;3.90;;;7.40;99.90;;;;;;6018200;23;20069;-79
2022/01/22 13:28:10;;;;;;;11.73;3.45;;;7.40;99.90;;;;;;6018177;23;20101;-79
2022/01/22 13:30:43;;;;;;;19.10;3.70;;;7.40;99.90;;;;;;5995032;23;20023;-79
2022/01/22 13:33:17;;;;;;;17.48;3.17;;;7.40;99.90;;;;;;6019409;23;20358;-79
2022/01/22 13:35:57;;;;;;;14.07;3.15;;;7.40;99.90;;;;;;6067154;23;20386;-79
2022/01/22 13:38:42;;;;;;;18.17;3.15;;;7.90;99.90;;;;;;6041786;23;20345;-78
2022/01/22 13:49:36;;;;;;;22.70;2.83;;;7.30;99.90;;;;;;6067612;23;20373;-78
2022/01/22 13:52:09;;;;;;;9.77;2.55;;;7.30;99.90;;;;;;6041616;23;20023;-78
2022/01/22 13:54:41;;;;;;;17.90;2.80;;;7.40;99.90;;;;;;6041919;23;20019;-78
2022/01/22 13:57:09;;;;;;;15.27;3.20;;;7.30;99.90;;;;;;6040881;23;20391;-78
2022/01/22 13:59:39;;;;;;;16.33;3.38;;;7.30;99.90;;;;;;6018352;23;20017;-78
2022/01/22 14:04:47;;;;;;;17.92;3.50;;;7.30;99.90;;;;;;6041511;23;20346;-78
2022/01/22 14:07:48;;;;;;;13.50;2.40;;;7.20;99.90;;;;;;6041143;23;20077;-78
2022/01/22 14:10:18;;;;;;;13.52;2.90;;;7.20;99.90;;;;;;6041590;23;20025;-76
2022/01/22 14:12:51;;;;;;;15.10;2.85;;;7.20;99.90;;;;;;6041723;23;20378;-76
2022/01/22 14:15:27;;;;;;;14.10;2.90;;;7.20;99.90;;;;;;6041556;23;20025;-76
2022/01/22 14:20:48;;;;;;;19.80;3.40;;;7.20;99.90;;;;;;6041257;23;20105;-78
2022/01/22 14:23:31;;;;;;;11.93;2.45;;;7.20;99.90;;;;;;6067377;23;20018;-78
2022/01/22 14:26:18;;;;;;;17.65;4.85;;;7.20;99.90;;;;;;6067870;23;20443;-79
2022/01/22 14:28:55;;;;;;;14.13;2.90;;;7.20;99.90;;;;;;6019886;23;20015;-79
2022/01/22 14:31:57;;;;;;;14.73;2.55;;;7.20;99.90;;;;;;5997903;23;20342;-79
2022/01/22 14:34:31;;;;;;;18.00;2.40;;;7.10;99.90;;;;;;6021830;23;20023;-78
2022/01/22 14:36:58;;;;;;;12.55;1.85;;;7.60;99.90;;;;;;6068775;23;20019;-79
2022/01/22 14:44:38;;;;;;;17.58;2.20;;;7.10;99.90;;;;;;6043467;23;20021;-78
2022/01/22 14:47:10;;;;;;;12.20;2.60;;;7.10;99.90;;;;;;6068686;23;20051;-79
2022/01/22 14:49:43;;;;;;;11.90;1.92;;;7.10;99.90;;;;;;6043209;23;20011;-79
2022/01/22 14:52:12;;;;;;;12.23;2.03;;;7.10;99.90;;;;;;6043619;23;20014;-78
2022/01/22 14:54:40;;;;;;;8.93;2.20;;;7.10;99.90;;;;;;6043193;23;20015;-79
2022/01/22 14:57:08;;;;;;;11.10;2.55;;;7.20;99.90;;;;;;6069293;23;20022;-79
2022/01/22 14:59:35;;;;;;;12.88;2.38;;;7.40;99.90;;;;;;6043278;23;20019;-79
2022/01/22 15:02:02;;;;;;;8.00;2.20;;;7.10;99.90;;;;;;6043688;23;20010;-79
2022/01/22 15:04:29;;;;;;;14.05;2.53;;;7.20;99.90;;;;;;6042994;23;20017;-79